Time;durP1;ratioP1;P1;durP2;ratioP2;P2;SDS_P1;SDS_P2;PMS_P1;PMS_P2;Temp;Humidity;BMP_temperature;BMP_pressure;BME280_temperature;BME280_humidity;BME280_pressure;Samples;Min_cycle;Max_cycle;Signal;HPM_P1;HPM_P2
2021/07/21 00:01:07;;;;;;;29.98;12.00;;;;;;;16.67;85.15;102449.84;5010787;28;20116;-77
2021/07/21 00:03:36;;;;;;;30.50;12.75;;;;;;;16.59;85.76;102439.31;5013370;28;20066;-78
2021/07/21 00:06:04;;;;;;;28.40;12.85;;;;;;;16.58;85.85;102444.75;5011393;28;20062;-78
2021/07/21 00:08:33;;;;;;;32.33;12.80;;;;;;;16.58;85.39;102447.44;5012210;28;20352;-77
2021/07/21 00:13:47;;;;;;;27.55;12.73;;;;;;;16.60;85.27;102445.56;5010418;28;20490;-77
2021/07/21 00:16:17;;;;;;;31.17;12.73;;;;;;;16.54;86.17;102445.78;5007829;28;20189;-78
2021/07/21 00:18:53;;;;;;;33.75;14.10;;;;;;;16.47;86.14;102439.69;5011160;28;20134;-77
2021/07/21 00:21:26;;;;;;;29.02;12.88;;;;;;;16.46;85.52;102447.81;5009558;28;20515;-78
2021/07/21 00:23:55;;;;;;;30.92;12.90;;;;;;;16.44;85.99;102447.88;5012056;28;20322;-78
2021/07/21 00:26:23;;;;;;;36.20;14.85;;;;;;;16.42;86.34;102447.91;5012305;28;20057;-78
2021/07/21 00:28:51;;;;;;;32.78;13.68;;;;;;;16.37;85.60;102449.88;5015745;28;20071;-78
2021/07/21 00:31:19;;;;;;;30.88;14.32;;;;;;;16.32;85.68;102441.06;5014742;28;20069;-77
2021/07/21 00:33:48;;;;;;;30.58;13.15;;;;;;;16.28;86.24;102454.66;5016373;28;20413;-77
2021/07/21 00:36:15;;;;;;;31.13;12.32;;;;;;;16.24;85.27;102451.16;5017183;28;20440;-76
2021/07/21 00:38:43;;;;;;;29.30;13.73;;;;;;;16.19;86.16;102445.03;5015316;28;20108;-77
2021/07/21 00:41:13;;;;;;;34.60;15.25;;;;;;;16.16;86.12;102450.56;5013998;28;21185;-78
2021/07/21 00:43:40;;;;;;;30.63;13.82;;;;;;;16.12;86.08;102451.56;5016099;28;20491;-77
2021/07/21 00:46:08;;;;;;;35.88;14.32;;;;;;;16.08;86.06;102444.50;5013505;28;20436;-78
2021/07/21 00:48:36;;;;;;;29.98;14.07;;;;;;;16.06;86.43;102444.53;5017036;28;20140;-78
2021/07/21 00:51:04;;;;;;;32.58;13.93;;;;;;;16.00;85.00;102444.72;5013688;28;20065;-77
2021/07/21 00:53:33;;;;;;;35.80;15.52;;;;;;;16.02;86.96;102440.16;5011298;28;20080;-77
2021/07/21 00:56:01;;;;;;;32.92;14.30;;;;;;;15.99;87.49;102441.16;5017333;28;20430;-76
2021/07/21 00:58:30;;;;;;;38.03;15.80;;;;;;;15.95;87.02;102443.97;5013025;28;20056;-77
2021/07/21 01:00:58;;;;;;;35.83;15.68;;;;;;;15.92;87.25;102439.56;5014632;28;20057;-77
2021/07/21 01:03:26;;;;;;;36.35;14.60;;;;;;;15.94;87.50;102440.41;5013723;28;20076;-77
2021/07/21 01:05:54;;;;;;;34.58;14.63;;;;;;;15.92;88.11;102444.06;5011950;28;20079;-77
2021/07/21 01:08:23;;;;;;;37.38;15.60;;;;;;;15.90;88.83;102437.84;5014415;28;20645;-77
2021/07/21 01:10:56;;;;;;;35.20;14.68;;;;;;;15.87;88.71;102439.69;5012765;28;20088;-77
2021/07/21 01:13:26;;;;;;;30.55;13.60;;;;;;;15.91;88.99;102445.00;5016875;28;20140;-77
2021/07/21 01:16:02;;;;;;;32.03;14.68;;;;;;;15.84;88.42;102442.47;5010198;28;20048;-78
2021/07/21 01:18:36;;;;;;;35.22;14.50;;;;;;;15.83;88.68;102442.50;5012876;28;20070;-78
2021/07/21 01:21:43;;;;;;;37.08;15.07;;;;;;;15.78;88.82;102437.28;5011412;28;20457;-78
2021/07/21 01:24:22;;;;;;;34.85;15.13;;;;;;;15.77;88.30;102445.41;5013048;28;20061;-77
2021/07/21 01:27:17;;;;;;;35.65;14.00;;;;;;;15.77;88.07;102440.03;5016195;28;20164;-77
2021/07/21 01:29:49;;;;;;;31.50;13.05;;;;;;;15.75;87.71;102439.13;5010395;28;20099;-77
2021/07/21 01:32:18;;;;;;;34.00;14.57;;;;;;;15.72;87.87;102440.09;5016670;28;20065;-78
2021/07/21 01:34:50;;;;;;;36.88;15.13;;;;;;;15.69;88.16;102445.56;5011787;28;20068;-78
2021/07/21 01:37:20;;;;;;;34.10;15.43;;;;;;;15.67;88.66;102444.72;5007652;28;20116;-77
2021/07/21 01:39:51;;;;;;;35.33;15.80;;;;;;;15.63;88.73;102452.00;5011409;28;20057;-78
2021/07/21 01:42:21;;;;;;;35.42;13.82;;;;;;;15.64;88.93;102431.38;5011769;28;20070;-77
2021/07/21 01:44:52;;;;;;;34.50;13.52;;;;;;;15.63;88.27;102440.34;5012575;28;20089;-77
2021/07/21 01:47:23;;;;;;;37.05;15.98;;;;;;;15.55;87.86;102440.56;5013222;28;20632;-77
2021/07/21 01:49:54;;;;;;;35.22;15.18;;;;;;;15.54;88.69;102441.50;5013524;28;20484;-78
2021/07/21 01:52:27;;;;;;;34.78;15.38;;;;;;;15.55;88.83;102445.97;5013230;28;20065;-78
2021/07/21 01:54:57;;;;;;;38.33;16.42;;;;;;;15.55;88.96;102443.25;5013094;28;20058;-78
2021/07/21 01:57:30;;;;;;;39.05;15.73;;;;;;;15.56;88.66;102444.13;5011111;28;20120;-78
2021/07/21 01:59:59;;;;;;;42.65;17.40;;;;;;;15.55;89.28;102447.78;5012016;28;20112;-77
2021/07/21 02:02:29;;;;;;;36.72;17.20;;;;;;;15.48;88.99;102450.63;5016948;28;20061;-77
2021/07/21 02:04:59;;;;;;;38.38;16.40;;;;;;;15.47;89.62;102451.53;5012564;28;20046;-77
2021/07/21 02:07:28;;;;;;;34.00;15.98;;;;;;;15.44;89.12;102446.25;5012234;28;20061;-77
2021/07/21 02:09:56;;;;;;;38.33;15.63;;;;;;;15.41;88.97;102456.19;5019644;28;20093;-78
2021/07/21 02:12:24;;;;;;;36.60;15.40;;;;;;;15.38;89.20;102450.91;5015891;28;20160;-78
2021/07/21 02:14:53;;;;;;;40.03;15.48;;;;;;;15.32;89.17;102452.84;5012734;28;20061;-78
2021/07/21 02:17:25;;;;;;;37.85;16.00;;;;;;;15.28;88.58;102450.28;5009202;28;20235;-78
2021/07/21 02:19:54;;;;;;;33.88;15.27;;;;;;;15.27;88.73;102454.78;5012801;28;20061;-78
2021/07/21 02:22:23;;;;;;;39.38;17.92;;;;;;;15.25;89.72;102450.34;5013156;28;20350;-77
2021/07/21 02:24:51;;;;;;;37.88;16.38;;;;;;;15.25;90.25;102456.59;5010909;28;20117;-77
2021/07/21 02:27:19;;;;;;;34.05;15.70;;;;;;;15.23;89.85;102461.13;5014182;28;20100;-78
2021/07/21 02:29:47;;;;;;;42.60;16.70;;;;;;;15.20;90.37;102450.44;5013266;28;20087;-77
2021/07/21 02:32:25;;;;;;;43.03;17.73;;;;;;;15.24;90.92;102451.28;5011025;28;20062;-77
2021/07/21 02:34:53;;;;;;;42.22;17.48;;;;;;;15.21;90.78;102454.91;5009071;28;20531;-77
2021/07/21 02:37:21;;;;;;;38.60;17.27;;;;;;;15.22;91.16;102453.09;5014947;28;20146;-77
2021/07/21 02:39:51;;;;;;;40.03;16.98;;;;;;;15.18;89.87;102451.44;5013350;28;20154;-77
2021/07/21 02:42:20;;;;;;;45.65;17.35;;;;;;;15.15;89.69;102456.88;5008663;28;20685;-77
2021/07/21 02:44:49;;;;;;;43.17;17.35;;;;;;;15.11;89.93;102456.97;5012329;28;20061;-77
2021/07/21 02:47:21;;;;;;;39.50;16.38;;;;;;;15.06;89.19;102456.19;5011581;28;20329;-78
2021/07/21 02:49:50;;;;;;;38.88;15.77;;;;;;;15.00;88.95;102451.00;5011547;28;20376;-77
2021/07/21 02:52:23;;;;;;;36.08;15.48;;;;;;;14.99;89.74;102459.09;5012129;28;20365;-77
2021/07/21 02:55:02;;;;;;;39.95;16.25;;;;;;;14.96;89.62;102453.78;5012042;28;20108;-77
2021/07/21 02:57:35;;;;;;;44.42;17.40;;;;;;;14.98;90.45;102460.00;5012050;28;20346;-77
2021/07/21 03:00:10;;;;;;;36.15;15.40;;;;;;;14.94;89.52;102462.75;5013830;28;20504;-78
2021/07/21 03:02:41;;;;;;;32.40;14.65;;;;;;;14.88;91.21;102470.06;5011759;28;20049;-77
2021/07/21 03:05:12;;;;;;;38.53;16.05;;;;;;;14.87;91.52;102454.91;5010314;28;20077;-77
2021/07/21 03:07:49;;;;;;;40.05;17.65;;;;;;;14.82;91.42;102462.19;5009457;28;20167;-77
2021/07/21 03:10:17;;;;;;;38.92;17.30;;;;;;;14.79;91.25;102463.13;5010967;28;20065;-72
2021/07/21 03:12:47;;;;;;;40.45;17.33;;;;;;;14.81;91.36;102463.97;5008727;28;20064;-72
2021/07/21 03:15:16;;;;;;;42.63;16.15;;;;;;;14.80;92.56;102469.41;5011179;28;20069;-72
2021/07/21 03:17:49;;;;;;;38.67;17.58;;;;;;;14.77;91.76;102474.84;5012047;28;20050;-72
2021/07/21 03:20:18;;;;;;;39.88;17.02;;;;;;;14.73;90.97;102474.03;5010284;28;20069;-72
2021/07/21 03:22:48;;;;;;;37.50;16.00;;;;;;;14.68;91.36;102476.81;5013950;28;20403;-72
2021/07/21 03:25:17;;;;;;;42.63;16.08;;;;;;;14.69;92.15;102475.00;5009164;28;20480;-72
2021/07/21 03:27:45;;;;;;;38.03;16.45;;;;;;;14.66;91.43;102475.06;5009229;28;20160;-73
2021/07/21 03:30:14;;;;;;;42.70;15.88;;;;;;;14.63;91.07;102475.19;5015105;28;20064;-72
2021/07/21 03:32:44;;;;;;;41.05;18.52;;;;;;;14.62;91.73;102476.97;5012407;28;20072;-72
2021/07/21 03:35:15;;;;;;;36.65;15.95;;;;;;;14.62;92.37;102479.63;5010897;28;20066;-72
2021/07/21 03:37:47;;;;;;;37.70;16.65;;;;;;;14.65;92.81;102479.56;5010540;28;20069;-72
2021/07/21 03:40:16;;;;;;;44.78;18.92;;;;;;;14.59;92.59;102476.16;5009421;28;20119;-72
2021/07/21 03:42:50;;;;;;;41.50;16.73;;;;;;;14.58;92.03;102475.25;5010449;28;20131;-74
2021/07/21 03:45:17;;;;;;;41.83;17.50;;;;;;;14.53;91.62;102483.38;5011285;28;20322;-72
2021/07/21 03:47:47;;;;;;;36.35;15.15;;;;;;;14.52;91.50;102481.66;5014300;28;20500;-72
2021/07/21 03:50:19;;;;;;;41.67;16.60;;;;;;;14.54;91.74;102476.22;5011364;28;20072;-72
2021/07/21 03:52:49;;;;;;;36.58;14.48;;;;;;;14.54;92.14;102478.91;5011371;28;20376;-72
2021/07/21 03:55:21;;;;;;;41.45;18.02;;;;;;;14.54;92.27;102470.84;5007842;28;20062;-72
2021/07/21 03:57:49;;;;;;;40.70;16.35;;;;;;;14.51;91.45;102468.25;5010400;28;20459;-72
2021/07/21 04:00:19;;;;;;;40.67;15.40;;;;;;;14.47;91.49;102466.53;5011716;28;20065;-72
2021/07/21 04:02:53;;;;;;;39.85;17.58;;;;;;;14.48;92.19;102477.25;5016204;28;20503;-72
2021/07/21 04:05:25;;;;;;;34.10;15.75;;;;;;;14.44;91.35;102472.88;5013309;28;20463;-76
2021/07/21 04:07:54;;;;;;;42.40;16.50;;;;;;;14.42;91.86;102463.97;5013988;28;20070;-76
2021/07/21 04:10:23;;;;;;;40.17;18.30;;;;;;;14.38;91.13;102471.19;5013315;28;20425;-80
2021/07/21 04:12:53;;;;;;;42.22;17.40;;;;;;;14.38;92.38;102470.31;5013823;28;20168;-79
2021/07/21 04:15:22;;;;;;;35.95;15.77;;;;;;;14.40;92.43;102471.16;5012818;28;20069;-77
2021/07/21 04:17:51;;;;;;;42.45;16.73;;;;;;;14.38;92.61;102464.94;5014305;28;20096;-77
2021/07/21 04:20:20;;;;;;;38.00;16.52;;;;;;;14.41;93.07;102467.56;5015304;28;20096;-77
2021/07/21 04:22:51;;;;;;;43.22;16.52;;;;;;;14.43;92.65;102471.09;5015865;28;20069;-77
2021/07/21 04:25:21;;;;;;;36.85;14.82;;;;;;;14.43;92.65;102475.59;5013809;28;20061;-77
2021/07/21 04:27:50;;;;;;;41.00;18.23;;;;;;;14.46;92.62;102475.53;5011903;28;20080;-77
2021/07/21 04:30:17;;;;;;;44.33;19.20;;;;;;;14.48;92.48;102476.38;5016172;28;20399;-77
2021/07/21 04:32:46;;;;;;;52.88;20.40;;;;;;;14.51;92.79;102474.50;5010980;28;20444;-72
2021/07/21 04:35:16;;;;;;;41.47;18.15;;;;;;;14.54;92.14;102477.13;5013518;28;20276;-72
2021/07/21 04:37:45;;;;;;;39.85;16.20;;;;;;;14.60;92.34;102478.81;5014842;28;20069;-77
2021/07/21 04:40:15;;;;;;;43.03;20.23;;;;;;;14.65;92.60;102474.19;5011148;28;20065;-77
2021/07/21 04:42:44;;;;;;;40.42;18.50;;;;;;;14.70;92.81;102477.66;5019235;28;20680;-77
2021/07/21 04:45:13;;;;;;;46.00;18.40;;;;;;;14.72;92.47;102474.94;5012257;28;20084;-77
2021/07/21 04:47:42;;;;;;;45.45;19.67;;;;;;;14.78;93.01;102492.72;5013615;28;20233;-77
2021/07/21 04:50:14;;;;;;;44.17;18.85;;;;;;;14.84;92.91;102487.22;5015397;28;20062;-78
2021/07/21 04:52:43;;;;;;;40.38;16.98;;;;;;;14.92;92.80;102495.97;5013980;28;20112;-77
2021/07/21 04:55:12;;;;;;;42.63;18.38;;;;;;;14.97;91.80;102498.56;5017907;28;20061;-77
2021/07/21 04:57:42;;;;;;;43.28;17.08;;;;;;;15.03;91.92;102488.53;5013093;28;20085;-76
2021/07/21 05:00:11;;;;;;;51.15;20.10;;;;;;;15.16;91.73;102483.72;5014994;28;20066;-77
2021/07/21 05:02:39;;;;;;;42.60;18.23;;;;;;;15.30;91.34;102492.31;5010360;28;20062;-77
2021/07/21 05:05:07;;;;;;;41.22;19.25;;;;;;;15.45;90.64;102496.41;5012027;28;20049;-77
2021/07/21 05:07:35;;;;;;;44.13;18.15;;;;;;;15.62;89.70;102498.66;5013858;28;20093;-72
2021/07/21 05:10:03;;;;;;;42.65;18.08;;;;;;;15.81;89.36;102496.38;5013397;28;20528;-74
2021/07/21 05:12:31;;;;;;;46.13;19.05;;;;;;;16.01;88.43;102500.34;5014322;28;20092;-72
2021/07/21 05:15:00;;;;;;;46.45;18.98;;;;;;;16.19;87.59;102505.19;5017481;28;20062;-73
2021/07/21 05:17:28;;;;;;;41.08;18.98;;;;;;;16.36;86.95;102509.19;5011566;28;20061;-72
2021/07/21 05:19:56;;;;;;;42.13;19.13;;;;;;;16.55;85.71;102504.09;5015913;28;20458;-73
2021/07/21 05:22:23;;;;;;;44.75;18.40;;;;;;;16.74;85.46;102508.00;5013679;28;20508;-72
2021/07/21 05:24:51;;;;;;;43.22;19.25;;;;;;;16.84;83.97;102514.03;5017781;28;20092;-72
2021/07/21 05:27:19;;;;;;;47.78;20.92;;;;;;;17.06;84.10;102511.53;5016454;28;20085;-73
2021/07/21 05:29:47;;;;;;;38.10;16.83;;;;;;;17.23;82.72;102512.75;5011945;28;20321;-72
2021/07/21 05:32:17;;;;;;;46.03;20.65;;;;;;;17.31;81.98;102516.09;5017200;28;20396;-72
2021/07/21 05:34:45;;;;;;;42.25;18.92;;;;;;;17.58;81.57;102516.09;5014242;28;20108;-72
2021/07/21 05:37:13;;;;;;;44.55;20.00;;;;;;;17.61;80.50;102519.56;5012133;28;20049;-72
2021/07/21 05:39:41;;;;;;;39.70;20.17;;;;;;;17.76;78.55;102511.81;5016282;28;20064;-72
2021/07/21 05:42:09;;;;;;;42.17;19.27;;;;;;;17.94;79.09;102519.31;5011350;28;20069;-72
2021/07/21 05:44:38;;;;;;;43.95;18.80;;;;;;;18.16;78.61;102508.59;5011920;28;20319;-72
2021/07/21 05:47:06;;;;;;;40.67;19.73;;;;;;;18.34;78.48;102514.22;5013375;28;20062;-73
2021/07/21 05:49:35;;;;;;;40.65;18.73;;;;;;;18.51;77.93;102517.19;5010965;28;20076;-72
2021/07/21 05:52:03;;;;;;;36.92;18.05;;;;;;;18.74;77.41;102513.53;5014751;28;20401;-75
2021/07/21 05:54:34;;;;;;;42.45;18.55;;;;;;;18.90;77.21;102521.06;5011063;28;20409;-72
2021/07/21 05:57:01;;;;;;;45.35;19.85;;;;;;;19.06;76.47;102524.91;5014754;28;20830;-74
2021/07/21 05:59:29;;;;;;;43.40;20.30;;;;;;;19.06;75.78;102516.81;5011652;28;20128;-74
2021/07/21 06:01:57;;;;;;;40.67;18.85;;;;;;;19.22;74.47;102517.94;5009742;28;20107;-72
2021/07/21 06:04:25;;;;;;;37.97;17.98;;;;;;;19.28;74.25;102521.34;5010767;28;20073;-72
2021/07/21 06:06:54;;;;;;;41.63;19.08;;;;;;;19.48;73.53;102520.47;5011882;28;20443;-72
2021/07/21 06:09:22;;;;;;;42.60;18.60;;;;;;;19.51;73.20;102523.94;5014048;28;20065;-73
2021/07/21 06:11:50;;;;;;;38.50;17.85;;;;;;;19.62;72.70;102528.88;5012190;28;20369;-72
2021/07/21 06:14:18;;;;;;;38.70;20.30;;;;;;;19.63;72.59;102519.81;5014560;28;20065;-74
2021/07/21 06:16:46;;;;;;;41.45;19.08;;;;;;;19.90;71.81;102522.25;5015889;28;20119;-73
2021/07/21 06:19:14;;;;;;;40.38;18.52;;;;;;;19.90;70.53;102527.69;5011888;28;20068;-72
2021/07/21 06:21:42;;;;;;;42.25;18.65;;;;;;;20.17;70.44;102524.69;5015153;28;20412;-72
2021/07/21 06:24:11;;;;;;;38.33;18.20;;;;;;;20.44;70.02;102523.38;5008208;28;20045;-72
2021/07/21 06:26:39;;;;;;;41.33;17.65;;;;;;;20.43;68.73;102526.16;5014874;28;20236;-72
2021/07/21 06:29:06;;;;;;;41.40;18.40;;;;;;;20.57;68.02;102534.53;5015228;28;20069;-72
2021/07/21 06:31:37;;;;;;;38.40;18.48;;;;;;;20.56;67.26;102532.78;5011639;28;20076;-72
2021/07/21 06:34:05;;;;;;;34.95;17.45;;;;;;;20.69;66.32;102539.41;5015010;28;20069;-72
2021/07/21 06:36:33;;;;;;;35.25;16.63;;;;;;;21.03;66.03;102535.03;5012524;28;20381;-72
2021/07/21 06:39:00;;;;;;;39.97;18.73;;;;;;;20.97;64.04;102539.91;5015188;28;20693;-72
2021/07/21 06:41:30;;;;;;;34.30;15.48;;;;;;;21.24;63.79;102543.94;5011799;28;20079;-72
2021/07/21 06:44:00;;;;;;;36.22;17.38;;;;;;;21.16;64.21;102543.44;5013633;28;20065;-72
2021/07/21 06:46:30;;;;;;;34.88;17.42;;;;;;;21.15;63.21;102546.25;5014954;28;20061;-72
2021/07/21 06:48:58;;;;;;;36.97;17.25;;;;;;;21.51;61.77;102548.97;5010319;28;20088;-72
2021/07/21 06:51:25;;;;;;;30.58;16.98;;;;;;;21.80;61.30;102544.72;5015796;28;20546;-72
2021/07/21 06:53:53;;;;;;;36.80;18.40;;;;;;;21.87;60.87;102553.44;5018094;28;21187;-72
2021/07/21 06:56:21;;;;;;;32.30;16.98;;;;;;;22.01;60.31;102556.31;5010666;28;20120;-72
2021/07/21 06:58:52;;;;;;;33.58;16.23;;;;;;;21.97;60.26;102559.25;5017617;28;20151;-72
2021/07/21 07:01:21;;;;;;;31.63;15.32;;;;;;;22.22;59.36;102558.84;5010785;28;20065;-72
2021/07/21 07:03:49;;;;;;;32.53;16.02;;;;;;;22.36;58.62;102560.81;5012842;28;20092;-72
2021/07/21 07:06:17;;;;;;;34.20;16.83;;;;;;;22.42;57.56;102565.03;5012259;28;20108;-72
2021/07/21 07:08:44;;;;;;;33.40;17.40;;;;;;;22.40;57.56;102564.25;5011986;28;20097;-72
2021/07/21 07:11:12;;;;;;;32.30;16.25;;;;;;;22.64;57.12;102565.59;5014488;28;20062;-72
2021/07/21 07:13:40;;;;;;;32.22;15.38;;;;;;;22.59;56.01;102564.97;5007968;28;20065;-72
2021/07/21 07:16:14;;;;;;;29.00;14.02;;;;;;;22.98;56.39;102557.38;5012265;28;20264;-70
2021/07/21 07:18:42;;;;;;;33.80;15.77;;;;;;;22.97;56.23;102561.03;5011963;28;20068;-71
2021/07/21 07:21:10;;;;;;;27.98;13.27;;;;;;;23.20;54.74;102557.03;5010566;28;20073;-70
2021/07/21 07:23:38;;;;;;;27.88;14.60;;;;;;;23.22;54.28;102565.97;5009817;28;20057;-70
2021/07/21 07:26:06;;;;;;;29.48;13.18;;;;;;;23.48;52.96;102559.88;5010688;28;20511;-69
2021/07/21 07:28:33;;;;;;;27.92;14.77;;;;;;;23.50;51.54;102566.09;5013698;28;20519;-69
2021/07/21 07:31:01;;;;;;;27.65;14.00;;;;;;;23.97;52.20;102560.59;5011482;28;20046;-76
2021/07/21 07:33:31;;;;;;;28.38;14.52;;;;;;;23.75;52.67;102563.75;5009595;28;20061;-77
2021/07/21 07:35:59;;;;;;;24.77;11.65;;;;;;;23.98;49.96;102565.97;5007135;28;20073;-74
2021/07/21 07:38:26;;;;;;;23.77;12.23;;;;;;;23.99;49.52;102569.56;5009686;28;20062;-76
2021/07/21 07:40:54;;;;;;;22.92;11.57;;;;;;;24.08;49.44;102573.59;5012774;28;20107;-75
2021/07/21 07:43:22;;;;;;;27.38;13.27;;;;;;;24.04;49.29;102576.50;5013660;28;20053;-76
2021/07/21 07:45:51;;;;;;;26.77;14.38;;;;;;;24.11;48.84;102563.38;5009741;28;20089;-75
2021/07/21 07:48:19;;;;;;;26.10;12.73;;;;;;;24.07;49.09;102569.97;5013511;28;20056;-75
2021/07/21 07:50:48;;;;;;;27.48;13.38;;;;;;;23.94;48.74;102563.50;5010765;28;20165;-75
2021/07/21 07:53:16;;;;;;;25.25;12.75;;;;;;;24.71;47.92;102562.31;5011124;28;20054;-75
2021/07/21 07:55:44;;;;;;;23.42;12.35;;;;;;;24.82;46.37;102567.03;5012453;28;20487;-76
2021/07/21 07:58:12;;;;;;;24.65;12.05;;;;;;;24.96;46.76;102558.84;5010160;28;20111;-71
2021/07/21 08:00:40;;;;;;;22.77;11.55;;;;;;;24.88;45.46;102566.66;5013272;28;20476;-70
2021/07/21 08:03:08;;;;;;;24.33;11.93;;;;;;;24.93;45.62;102563.63;5010319;28;20352;-70
2021/07/21 08:05:37;;;;;;;18.98;10.45;;;;;;;24.93;43.68;102563.63;5007413;28;20101;-70
2021/07/21 08:08:06;;;;;;;18.55;9.35;;;;;;;24.42;43.12;102562.28;5008175;28;20070;-71
2021/07/21 08:10:34;;;;;;;16.90;9.50;;;;;;;24.71;43.33;102559.56;5008005;28;20066;-70
2021/07/21 08:13:02;;;;;;;18.73;10.05;;;;;;;25.05;42.87;102556.47;5009348;28;20193;-75
2021/07/21 08:15:30;;;;;;;17.80;9.27;;;;;;;25.51;41.49;102553.41;5010157;28;20064;-77
2021/07/21 08:17:59;;;;;;;19.80;10.43;;;;;;;25.46;41.62;102559.16;5009815;28;20380;-70
2021/07/21 08:20:27;;;;;;;20.58;9.70;;;;;;;25.49;40.62;102555.38;5009684;28;20070;-71
2021/07/21 08:22:54;;;;;;;19.02;9.30;;;;;;;26.12;39.79;102559.19;5009260;28;20077;-71
2021/07/21 08:25:24;;;;;;;20.80;10.85;;;;;;;25.62;40.76;102560.84;5010420;28;20054;-71
2021/07/21 08:27:53;;;;;;;18.65;9.40;;;;;;;25.76;40.01;102565.34;5009513;28;20152;-71
2021/07/21 08:30:22;;;;;;;20.98;10.23;;;;;;;26.26;39.44;102553.59;5009665;28;20069;-73
2021/07/21 08:32:51;;;;;;;24.20;11.27;;;;;;;26.51;40.03;102561.88;5016512;28;20129;-73
2021/07/21 08:35:20;;;;;;;21.80;10.50;;;;;;;25.88;40.83;102572.69;5011204;28;20121;-73
2021/07/21 08:37:49;;;;;;;22.65;10.57;;;;;;;26.45;38.41;102571.41;5017732;28;20480;-72
2021/07/21 08:40:19;;;;;;;17.92;9.60;;;;;;;27.08;38.12;102563.19;5004999;28;20133;-73
2021/07/21 08:42:48;;;;;;;20.70;10.70;;;;;;;26.65;38.73;102562.66;5010291;28;20348;-72
2021/07/21 08:45:16;;;;;;;19.75;10.82;;;;;;;27.14;38.13;102562.72;5010911;28;20065;-73
2021/07/21 08:47:44;;;;;;;20.13;10.63;;;;;;;26.87;38.56;102562.91;5012212;28;20127;-72
2021/07/21 08:50:13;;;;;;;17.42;9.27;;;;;;;26.87;38.31;102574.78;5016127;28;20061;-73
2021/07/21 08:52:42;;;;;;;19.75;10.50;;;;;;;26.77;37.72;102571.81;5012122;28;20069;-72
2021/07/21 08:55:12;;;;;;;21.92;10.82;;;;;;;26.95;38.12;102571.44;5015281;28;20119;-72
2021/07/21 08:57:40;;;;;;;19.75;11.02;;;;;;;27.20;36.46;102568.59;5012049;28;20352;-79
2021/07/21 09:00:13;;;;;;;19.10;11.45;;;;;;;27.26;37.32;102567.28;5012653;28;20042;-78
2021/07/21 09:02:41;;;;;;;18.38;9.57;;;;;;;26.82;37.07;102566.88;5013735;28;20334;-79
2021/07/21 09:05:11;;;;;;;16.83;8.68;;;;;;;27.64;36.02;102573.56;5008959;28;20108;-79
2021/07/21 09:07:39;;;;;;;18.38;9.98;;;;;;;27.96;35.57;102568.34;5012474;28;20061;-78
2021/07/21 09:10:10;;;;;;;16.65;9.15;;;;;;;28.10;35.46;102575.47;5012335;28;20073;-78
2021/07/21 09:12:39;;;;;;;17.15;9.82;;;;;;;28.11;34.99;102575.34;5012504;28;20107;-78
2021/07/21 09:15:08;;;;;;;15.85;9.05;;;;;;;28.62;35.08;102579.50;5012124;28;20504;-79
2021/07/21 09:17:38;;;;;;;22.23;11.43;;;;;;;28.07;36.10;102576.56;5014417;28;20076;-79
2021/07/21 09:20:16;;;;;;;20.88;11.07;;;;;;;27.67;36.90;102584.28;5019244;28;20065;-78
2021/07/21 09:22:44;;;;;;;21.90;11.38;;;;;;;28.05;36.74;102575.81;5015930;28;20066;-73
2021/07/21 09:25:15;;;;;;;20.38;10.02;;;;;;;28.14;35.44;102579.69;5015402;28;20061;-73
2021/07/21 09:27:45;;;;;;;18.45;9.63;;;;;;;27.88;36.16;102581.75;5016346;28;20230;-73
2021/07/21 09:30:15;;;;;;;24.27;11.75;;;;;;;27.97;36.03;102578.28;5011505;28;20069;-72
2021/07/21 09:33:01;;;;;;;19.65;11.07;;;;;;;28.57;35.88;102578.13;5014080;28;20101;-73
2021/07/21 09:35:33;;;;;;;24.73;12.10;;;;;;;28.18;35.02;102572.09;5012614;28;20469;-73
2021/07/21 09:38:04;;;;;;;21.67;10.32;;;;;;;27.87;37.00;102575.38;5014437;28;20053;-73
2021/07/21 09:40:32;;;;;;;22.45;11.18;;;;;;;28.56;36.15;102576.41;5014173;28;20107;-73
2021/07/21 09:43:00;;;;;;;21.77;11.85;;;;;;;28.96;34.92;102565.72;5013839;28;20058;-73
2021/07/21 09:45:30;;;;;;;22.15;11.27;;;;;;;29.05;34.14;102564.94;5016019;28;20551;-74
2021/07/21 09:47:59;;;;;;;22.30;10.82;;;;;;;28.77;35.03;102565.50;5013928;28;20163;-74
2021/07/21 09:50:30;;;;;;;21.65;11.32;;;;;;;28.58;34.63;102578.00;5010749;28;20061;-74
2021/07/21 09:53:04;;;;;;;20.92;10.55;;;;;;;28.69;34.70;102567.00;5011642;28;20077;-74
2021/07/21 09:55:33;;;;;;;19.77;10.38;;;;;;;29.21;34.06;102560.94;5011619;28;20173;-74
2021/07/21 09:58:04;;;;;;;25.38;11.48;;;;;;;28.88;34.21;102562.75;5016794;28;20089;-74
2021/07/21 10:00:34;;;;;;;26.58;13.48;;;;;;;27.67;35.99;102565.97;5013408;28;20061;-73
2021/07/21 10:03:13;;;;;;;24.30;11.10;;;;;;;27.74;35.74;102569.13;5013198;28;20324;-77
2021/07/21 10:05:56;;;;;;;22.58;11.70;;;;;;;28.73;35.60;102562.13;5013995;28;20061;-75
2021/07/21 10:08:33;;;;;;;23.10;11.63;;;;;;;28.90;35.31;102566.22;5018632;28;20053;-77
2021/07/21 10:11:20;;;;;;;23.38;12.15;;;;;;;28.31;36.34;102572.84;5017690;28;20377;-76
2021/07/21 10:13:48;;;;;;;18.00;10.60;;;;;;;29.16;34.66;102566.81;5015468;28;20182;-77
2021/07/21 10:16:33;;;;;;;18.83;10.13;;;;;;;29.45;34.73;102573.59;5013409;28;20054;-78
2021/07/21 10:19:05;;;;;;;22.52;11.05;;;;;;;29.30;34.21;102571.13;5009722;28;20068;-74
2021/07/21 10:21:33;;;;;;;22.17;11.40;;;;;;;29.00;34.24;102560.84;5014808;28;20073;-73
2021/07/21 10:24:01;;;;;;;22.85;12.43;;;;;;;29.04;34.02;102565.94;5009129;28;20068;-73
2021/07/21 10:26:29;;;;;;;23.00;12.63;;;;;;;28.77;34.25;102562.75;5012985;28;20372;-74
2021/07/21 10:28:59;;;;;;;24.80;12.75;;;;;;;28.97;34.86;102561.09;5014564;28;20076;-74
2021/07/21 10:31:28;;;;;;;21.33;11.48;;;;;;;29.51;34.39;102560.19;5007466;28;20441;-73
2021/07/21 10:33:57;;;;;;;23.60;11.35;;;;;;;28.97;34.93;102563.84;5010629;28;20061;-74
2021/07/21 10:36:26;;;;;;;28.45;11.90;;;;;;;29.55;34.23;102569.91;5010812;28;20072;-74
2021/07/21 10:38:54;;;;;;;21.45;11.70;;;;;;;29.31;34.44;102567.38;5007719;28;20053;-74
2021/07/21 10:41:22;;;;;;;20.70;11.43;;;;;;;29.52;33.48;102561.91;5008533;28;20054;-74
2021/07/21 10:43:53;;;;;;;19.13;10.70;;;;;;;29.86;33.79;102555.41;5008578;28;20065;-74
2021/07/21 10:46:41;;;;;;;19.38;11.00;;;;;;;29.16;33.77;102557.66;5010281;28;20042;-74
2021/07/21 10:49:18;;;;;;;22.48;11.18;;;;;;;29.41;34.83;102557.34;5008218;28;20049;-74
2021/07/21 10:55:19;;;;;;;20.15;10.82;;;;;;;29.21;33.82;102552.69;5064138;27;20403;-73
2021/07/21 11:00:39;;;;;;;20.20;10.73;;;;;;;27.86;35.71;102553.56;5050198;28;20061;-73
2021/07/21 11:03:19;;;;;;;22.52;11.32;;;;;;;27.58;36.07;102550.22;5052648;28;20371;-72
2021/07/21 11:05:56;;;;;;;20.58;10.73;;;;;;;26.70;38.11;102553.22;5054495;28;20057;-72
2021/07/21 11:08:25;;;;;;;20.83;11.90;;;;;;;26.92;38.22;102545.19;5048816;28;20076;-73
2021/07/21 11:10:56;;;;;;;21.15;11.23;;;;;;;26.76;38.19;102548.16;5054733;28;20061;-76
2021/07/21 11:13:39;;;;;;;20.35;11.65;;;;;;;26.75;38.72;102551.91;5051656;28;20194;-77
2021/07/21 11:16:27;;;;;;;20.80;11.27;;;;;;;28.04;36.57;102540.28;5053706;28;20049;-76
2021/07/21 11:18:55;;;;;;;20.88;10.88;;;;;;;28.50;35.23;102533.78;5048512;28;20318;-77
2021/07/21 11:21:22;;;;;;;24.70;11.82;;;;;;;27.97;35.38;102545.38;5051532;28;20540;-77
2021/07/21 11:24:02;;;;;;;23.65;11.52;;;;;;;27.68;36.40;102547.66;5055556;28;20060;-77
2021/07/21 11:26:44;;;;;;;24.80;11.93;;;;;;;28.42;36.39;102544.56;5050224;28;20521;-76
2021/07/21 11:29:44;;;;;;;21.63;10.80;;;;;;;28.75;35.20;102534.56;5055259;28;20083;-77
2021/07/21 11:32:14;;;;;;;21.15;10.77;;;;;;;28.91;34.80;102539.63;5051200;28;20088;-76